Time;durP1;ratioP1;P1;durP2;ratioP2;P2;SDS_P1;SDS_P2;PMS_P1;PMS_P2;Temp;Humidity;BMP_temperature;BMP_pressure;BME280_temperature;BME280_humidity;BME280_pressure;Samples;Min_cycle;Max_cycle;Signal;HPM_P1;HPM_P2
2023/01/19 00:02:59;;;;;;;8.70;7.03;;;;;;;-5.12;100.00;97130.72;15268578;19;20021;-47
2023/01/19 00:08:24;;;;;;;9.63;7.18;;;;;;;-5.18;100.00;97131.09;15272483;19;20018;-46
2023/01/19 00:13:52;;;;;;;10.27;6.90;;;;;;;-5.24;100.00;97136.75;15271583;19;20029;-47
2023/01/19 00:19:17;;;;;;;10.18;6.72;;;;;;;-5.32;100.00;97130.16;15272868;19;20022;-46
2023/01/19 00:24:43;;;;;;;11.10;7.13;;;;;;;-5.31;100.00;97136.28;15263333;19;20019;-46
2023/01/19 00:30:13;;;;;;;10.73;7.20;;;;;;;-5.31;100.00;97149.41;15269236;19;20010;-45
2023/01/19 00:35:44;;;;;;;9.13;6.05;;;;;;;-5.36;100.00;97144.44;15261636;19;20014;-46
2023/01/19 00:41:09;;;;;;;9.93;6.22;;;;;;;-5.40;100.00;97142.94;15272170;19;20042;-49
2023/01/19 00:46:36;;;;;;;7.10;5.05;;;;;;;-5.44;100.00;97158.03;15265563;19;20039;-49
2023/01/19 00:52:01;;;;;;;6.53;4.40;;;;;;;-5.48;100.00;97147.81;15271094;19;20022;-46
2023/01/19 00:57:26;;;;;;;6.60;4.60;;;;;;;-5.55;100.00;97139.47;15260617;19;20115;-46
2023/01/19 01:03:02;;;;;;;6.75;4.35;;;;;;;-5.64;100.00;97145.22;15269272;19;20094;-47
2023/01/19 01:08:27;;;;;;;6.28;4.60;;;;;;;-5.68;100.00;97147.19;15265468;19;20018;-46
2023/01/19 01:13:51;;;;;;;7.68;4.75;;;;;;;-5.72;100.00;97143.94;15267830;19;20020;-45
2023/01/19 01:19:19;;;;;;;9.38;5.13;;;;;;;-5.76;100.00;97157.31;15268406;19;20014;-48
2023/01/19 01:24:45;;;;;;;7.63;4.60;;;;;;;-5.83;100.00;97161.25;15265272;19;20018;-49
2023/01/19 01:30:12;;;;;;;8.30;4.30;;;;;;;-5.79;100.00;97162.75;15264686;19;20011;-46
2023/01/19 01:35:47;;;;;;;7.88;4.53;;;;;;;-5.71;100.00;97152.66;15261150;19;20014;-49
2023/01/19 01:41:12;;;;;;;5.43;4.20;;;;;;;-5.58;100.00;97150.13;15270165;19;20014;-47
2023/01/19 01:46:41;;;;;;;5.53;3.70;;;;;;;-5.63;100.00;97153.03;15261748;19;20365;-47
2023/01/19 01:52:09;;;;;;;5.10;3.42;;;;;;;-5.66;100.00;97152.38;15267285;19;20024;-49
2023/01/19 01:57:35;;;;;;;5.45;3.80;;;;;;;-5.71;100.00;97155.28;15258438;19;20035;-50
2023/01/19 02:02:59;;;;;;;6.43;3.70;;;;;;;-5.77;100.00;97158.25;15265347;19;20408;-47
2023/01/19 02:14:10;;;;;;;5.45;4.32;;;;;;;-5.82;100.00;97158.53;15275795;19;20021;-49
2023/01/19 02:19:41;;;;;;;5.10;3.70;;;;;;;-5.86;100.00;97157.00;15280643;19;20013;-47
2023/01/19 02:25:09;;;;;;;5.72;3.85;;;;;;;-5.90;100.00;97153.72;15273232;19;20022;-45
2023/01/19 02:30:35;;;;;;;6.35;3.50;;;;;;;-5.91;100.00;97148.59;15274444;19;20359;-46
2023/01/19 02:36:09;;;;;;;5.03;3.60;;;;;;;-5.94;100.00;97146.97;15275268;19;20066;-48
2023/01/19 02:41:41;;;;;;;4.65;3.20;;;;;;;-5.97;100.00;97149.78;15277185;19;20011;-49
2023/01/19 02:47:05;;;;;;;5.65;3.70;;;;;;;-6.04;100.00;97143.22;15277686;19;20026;-47
2023/01/19 02:52:31;;;;;;;4.70;3.10;;;;;;;-6.06;100.00;97134.63;15279588;19;20016;-44
2023/01/19 02:58:07;;;;;;;7.18;3.50;;;;;;;-6.06;100.00;97137.25;15277588;19;20041;-46
2023/01/19 03:03:45;;;;;;;4.70;3.30;;;;;;;-6.12;100.00;97137.59;15270422;19;20074;-46
2023/01/19 03:09:16;;;;;;;5.55;3.40;;;;;;;-6.16;100.00;97147.41;15277331;19;20078;-50
2023/01/19 03:14:55;;;;;;;4.81;3.37;;;;;;;-6.20;100.00;97144.13;15250128;19;10001570;-48
2023/01/19 03:20:27;;;;;;;4.97;3.53;;;;;;;-6.23;100.00;97146.06;15273693;19;20287;-47
2023/01/19 03:25:56;;;;;;;6.03;3.50;;;;;;;-6.26;100.00;97152.34;15269368;19;20097;-47
2023/01/19 03:31:27;;;;;;;5.28;3.58;;;;;;;-6.32;100.00;97152.69;15280734;19;20019;-47
2023/01/19 03:37:02;;;;;;;6.05;3.72;;;;;;;-6.33;100.00;97143.16;15266875;19;20025;-46
2023/01/19 03:42:28;;;;;;;5.05;4.07;;;;;;;-6.31;100.00;97149.16;15279023;19;20078;-49
2023/01/19 03:47:56;;;;;;;6.82;3.90;;;;;;;-6.29;100.00;97155.13;15267055;19;20819;-47
2023/01/19 03:53:23;;;;;;;6.32;4.25;;;;;;;-6.20;100.00;97156.38;15267540;19;20102;-53
2023/01/19 03:58:48;;;;;;;6.47;4.47;;;;;;;-6.15;100.00;97166.59;15265640;19;20090;-51
2023/01/19 04:04:16;;;;;;;6.22;4.53;;;;;;;-6.07;100.00;97167.84;15273318;19;20021;-46
2023/01/19 04:09:42;;;;;;;7.80;4.72;;;;;;;-5.99;100.00;97164.75;15270396;19;20108;-48
2023/01/19 04:15:09;;;;;;;6.18;4.13;;;;;;;-5.86;100.00;97166.66;15266902;19;20006;-48
2023/01/19 04:20:37;;;;;;;6.70;4.65;;;;;;;-5.79;100.00;97165.34;15260021;19;20471;-50
2023/01/19 04:26:05;;;;;;;5.65;4.20;;;;;;;-5.70;100.00;97169.22;15264323;19;20006;-47
2023/01/19 04:31:31;;;;;;;5.22;3.95;;;;;;;-5.61;100.00;97173.91;15268028;19;20011;-48
2023/01/19 04:36:58;;;;;;;7.05;4.78;;;;;;;-5.58;100.00;97176.38;15259303;19;20019;-46
2023/01/19 04:42:23;;;;;;;6.05;4.70;;;;;;;-5.59;100.00;97165.03;15259123;19;20014;-48
2023/01/19 04:47:48;;;;;;;7.38;4.82;;;;;;;-5.61;100.00;97166.91;15261795;19;20028;-47
2023/01/19 04:53:17;;;;;;;8.10;4.93;;;;;;;-5.60;100.00;97165.13;15264053;19;20029;-48
2023/01/19 04:58:42;;;;;;;6.72;5.45;;;;;;;-5.30;100.00;97166.84;15271224;19;20010;-47
2023/01/19 05:04:07;;;;;;;5.43;4.80;;;;;;;-5.20;100.00;97175.84;15266362;19;20025;-48
2023/01/19 05:09:35;;;;;;;6.50;4.80;;;;;;;-5.16;100.00;97179.94;15268638;19;20010;-50
2023/01/19 05:15:00;;;;;;;6.30;5.40;;;;;;;-5.11;100.00;97175.28;15260018;19;20029;-49
2023/01/19 05:20:26;;;;;;;7.07;5.35;;;;;;;-5.08;100.00;97178.66;15268419;19;20094;-48
2023/01/19 05:25:55;;;;;;;6.55;5.15;;;;;;;-5.15;100.00;97178.19;15259912;19;20014;-49
2023/01/19 05:31:20;;;;;;;6.72;5.07;;;;;;;-5.22;100.00;97192.59;15269782;19;20031;-49
2023/01/19 05:36:45;;;;;;;5.70;4.97;;;;;;;-5.29;100.00;97192.16;15257704;19;20038;-47
2023/01/19 05:42:12;;;;;;;6.22;5.10;;;;;;;-5.34;100.00;97195.03;15265743;19;20756;-48
2023/01/19 05:47:38;;;;;;;8.38;5.45;;;;;;;-5.39;100.00;97191.00;15269565;19;20462;-49
2023/01/19 05:53:04;;;;;;;7.70;5.70;;;;;;;-5.46;100.00;97190.53;15279852;19;20491;-49
2023/01/19 05:58:33;;;;;;;8.70;5.63;;;;;;;-5.49;100.00;97193.34;15275655;19;20364;-47
2023/01/19 06:03:58;;;;;;;7.22;5.85;;;;;;;-5.49;100.00;97206.47;15280262;19;20099;-48
2023/01/19 06:09:24;;;;;;;7.07;5.90;;;;;;;-5.51;100.00;97213.59;15281705;19;20014;-48
2023/01/19 06:14:51;;;;;;;7.10;5.95;;;;;;;-5.54;100.00;97212.00;15276842;19;20025;-48
2023/01/19 06:20:18;;;;;;;7.32;5.72;;;;;;;-5.50;100.00;97215.28;15281472;19;20375;-52
2023/01/19 06:25:42;;;;;;;7.40;6.00;;;;;;;-5.51;100.00;97208.34;15273429;19;20023;-50
2023/01/19 06:31:10;;;;;;;7.28;5.70;;;;;;;-5.53;100.00;97210.19;15278309;19;20022;-54
2023/01/19 06:36:34;;;;;;;7.80;6.50;;;;;;;-5.54;100.00;97213.75;15272855;19;20735;-52
2023/01/19 06:42:00;;;;;;;8.75;6.60;;;;;;;-5.50;100.00;97210.03;15279027;19;20010;-50
2023/01/19 06:47:28;;;;;;;7.57;6.30;;;;;;;-5.45;100.00;97221.09;15269010;19;20012;-53
2023/01/19 06:52:53;;;;;;;9.85;7.05;;;;;;;-5.43;100.00;97217.44;15278542;19;20019;-51
2023/01/19 06:58:17;;;;;;;7.32;6.20;;;;;;;-5.33;100.00;97224.78;15267821;19;20021;-51
2023/01/19 07:03:45;;;;;;;8.73;6.50;;;;;;;-5.37;100.00;97225.88;15275481;19;20018;-50
2023/01/19 07:09:12;;;;;;;8.27;6.25;;;;;;;-5.44;100.00;97231.50;15276693;19;20007;-50
2023/01/19 07:14:36;;;;;;;7.82;6.32;;;;;;;-5.53;100.00;97244.31;15274514;19;20460;-48
2023/01/19 07:20:03;;;;;;;8.90;6.82;;;;;;;-5.49;100.00;97240.59;15270361;19;20348;-47
2023/01/19 07:25:28;;;;;;;8.52;6.97;;;;;;;-5.53;100.00;97252.19;15271506;19;20034;-52
2023/01/19 07:30:53;;;;;;;9.57;7.25;;;;;;;-5.53;100.00;97246.94;15272503;19;20014;-48
2023/01/19 07:36:21;;;;;;;9.25;7.13;;;;;;;-5.48;100.00;97250.16;15269710;19;20454;-52
2023/01/19 07:41:45;;;;;;;9.18;7.43;;;;;;;-5.48;100.00;97256.22;15277726;19;20014;-47
2023/01/19 07:47:11;;;;;;;8.77;7.32;;;;;;;-5.44;100.00;97262.13;15273616;19;20070;-50
2023/01/19 07:52:39;;;;;;;7.82;6.80;;;;;;;-5.44;100.00;97267.38;15242829;19;20018;-51
2023/01/19 07:58:06;;;;;;;10.13;8.13;;;;;;;-5.43;100.00;97269.09;15269705;19;20772;-50
2023/01/19 08:03:30;;;;;;;12.20;8.18;;;;;;;-5.33;100.00;97279.91;15268317;19;20024;-52
2023/01/19 08:08:58;;;;;;;11.13;8.48;;;;;;;-5.27;100.00;97280.38;15270389;19;20015;-48
2023/01/19 08:14:22;;;;;;;11.70;8.15;;;;;;;-5.13;100.00;97289.22;15273113;19;20013;-48
2023/01/19 08:19:49;;;;;;;11.23;7.38;;;;;;;-5.00;100.00;97286.69;15278841;19;20027;-49
2023/01/19 08:25:16;;;;;;;9.23;7.68;;;;;;;-4.93;100.00;97297.69;15263543;19;20353;-47
2023/01/19 08:30:42;;;;;;;9.27;7.97;;;;;;;-4.85;100.00;97291.03;15271127;19;20021;-48
2023/01/19 08:36:08;;;;;;;10.40;8.80;;;;;;;-4.75;100.00;97293.09;15262439;19;20568;-47
2023/01/19 08:41:36;;;;;;;11.15;8.45;;;;;;;-4.66;100.00;97301.28;15272484;19;20025;-48
2023/01/19 08:47:01;;;;;;;9.13;8.10;;;;;;;-4.57;100.00;97301.63;15264298;19;20029;-48
2023/01/19 08:52:28;;;;;;;10.07;8.02;;;;;;;-4.47;100.00;97305.38;15270607;19;20026;-48
2023/01/19 08:58:03;;;;;;;11.52;8.57;;;;;;;-4.35;100.00;97320.38;15256299;19;20018;-47
2023/01/19 09:03:27;;;;;;;9.85;8.50;;;;;;;-4.20;100.00;97317.75;15268708;19;20026;-49
2023/01/19 09:08:53;;;;;;;8.80;7.82;;;;;;;-4.04;100.00;97313.19;15265163;19;20010;-47
2023/01/19 09:14:20;;;;;;;8.25;7.43;;;;;;;-3.85;100.00;97313.81;15266169;19;20025;-47
2023/01/19 09:19:46;;;;;;;9.00;8.10;;;;;;;-3.70;100.00;97327.78;15269371;19;20022;-47
2023/01/19 09:25:11;;;;;;;8.13;7.32;;;;;;;-3.52;100.00;97329.22;15265991;19;20018;-48
2023/01/19 09:30:39;;;;;;;8.60;7.35;;;;;;;-3.36;100.00;97331.69;15261557;19;20014;-48
2023/01/19 09:36:03;;;;;;;9.15;6.82;;;;;;;-3.14;100.00;97319.72;15264300;19;20014;-47
2023/01/19 09:41:30;;;;;;;8.23;7.25;;;;;;;-2.97;100.00;97326.47;15263887;19;20074;-48
2023/01/19 09:46:57;;;;;;;7.53;6.78;;;;;;;-2.86;100.00;97323.97;15262019;19;20014;-49
2023/01/19 09:52:24;;;;;;;7.97;6.85;;;;;;;-2.69;100.00;97327.25;15265593;19;20022;-52
2023/01/19 09:57:55;;;;;;;7.30;6.60;;;;;;;-2.54;100.00;97330.59;15255188;19;20437;-46
2023/01/19 10:03:25;;;;;;;8.13;7.32;;;;;;;-2.37;100.00;97327.66;15252767;19;20683;-47
2023/01/19 10:09:04;;;;;;;8.52;6.70;;;;;;;-2.29;100.00;97310.44;15264103;19;20015;-46
2023/01/19 10:14:38;;;;;;;7.30;6.60;;;;;;;-2.20;100.00;97312.41;15259548;19;20456;-49
2023/01/19 10:20:11;;;;;;;7.63;6.82;;;;;;;-2.14;100.00;97306.72;15262287;19;20023;-48
2023/01/19 10:25:36;;;;;;;8.15;6.45;;;;;;;-2.01;100.00;97301.41;15264529;19;20010;-48
2023/01/19 10:31:05;;;;;;;7.63;6.80;;;;;;;-1.87;100.00;97288.06;15266377;19;20779;-49
2023/01/19 10:36:38;;;;;;;6.97;6.25;;;;;;;-1.74;100.00;97295.06;15271416;19;20070;-50
2023/01/19 10:42:12;;;;;;;6.28;5.57;;;;;;;-1.67;100.00;97287.56;15272539;19;20010;-51
2023/01/19 10:47:41;;;;;;;6.00;5.40;;;;;;;-1.58;100.00;97286.88;15267747;19;20021;-50
2023/01/19 10:53:10;;;;;;;5.47;4.80;;;;;;;-1.48;100.00;97273.84;15276089;19;20010;-52
2023/01/19 10:58:39;;;;;;;5.38;4.10;;;;;;;-1.42;100.00;97274.22;15273017;19;20019;-51
2023/01/19 11:04:05;;;;;;;4.35;3.83;;;;;;;-1.32;100.00;97266.44;15274806;19;20015;-49
2023/01/19 11:09:32;;;;;;;5.60;4.45;;;;;;;-1.19;100.00;97260.22;15268433;19;20024;-50
2023/01/19 11:14:59;;;;;;;4.88;4.30;;;;;;;-1.09;100.00;97255.91;15274315;19;20025;-48
2023/01/19 11:20:27;;;;;;;5.15;4.38;;;;;;;-1.00;100.00;97244.63;15242511;19;20590;-48
2023/01/19 11:25:59;;;;;;;4.75;3.90;;;;;;;-0.97;100.00;97244.41;15275494;19;20022;-47
2023/01/19 11:31:34;;;;;;;4.55;4.15;;;;;;;-0.90;100.00;97236.00;15271542;19;20030;-53
2023/01/19 11:37:05;;;;;;;4.30;3.90;;;;;;;-0.85;100.00;97228.56;15270811;19;20018;-49
2023/01/19 11:42:36;;;;;;;5.22;4.07;;;;;;;-0.85;100.00;97228.56;15276132;19;20010;-49
2023/01/19 11:48:00;;;;;;;4.35;3.95;;;;;;;-0.80;100.00;97229.88;15271178;19;20093;-53
2023/01/19 11:53:28;;;;;;;4.47;4.07;;;;;;;-0.70;100.00;97224.72;15271369;19;20530;-51
2023/01/19 11:58:56;;;;;;;4.45;3.90;;;;;;;-0.58;100.00;97230.00;15269136;19;20040;-49
2023/01/19 12:04:27;;;;;;;4.38;3.97;;;;;;;-0.52;100.00;97240.09;15273438;19;20457;-50
2023/01/19 12:09:54;;;;;;;4.82;4.28;;;;;;;-0.37;100.00;97230.94;15264473;19;20392;-50
2023/01/19 12:15:28;;;;;;;5.25;3.80;;;;;;;-0.29;100.00;97226.88;15272039;19;20784;-51
2023/01/19 12:20:57;;;;;;;4.07;3.60;;;;;;;-0.16;100.00;97227.53;15268084;19;20022;-51
2023/01/19 12:26:40;;;;;;;4.55;3.53;;;;;;;-0.02;100.00;97229.91;15268555;19;20015;-51
2023/01/19 12:32:41;;;;;;;3.50;3.20;;;;;;;0.04;100.00;97220.63;15266979;19;20003;-49
2023/01/19 12:38:26;;;;;;;3.25;2.97;;;;;;;0.17;100.00;97211.69;15265232;19;20025;-50
2023/01/19 12:43:50;;;;;;;3.60;3.30;;;;;;;0.24;100.00;97215.50;15262556;19;20010;-50
2023/01/19 12:49:25;;;;;;;3.17;2.90;;;;;;;0.38;100.00;97222.34;15271238;19;20014;-50
2023/01/19 12:54:58;;;;;;;3.40;2.72;;;;;;;0.53;100.00;97222.88;15264028;19;20019;-50
2023/01/19 13:00:36;;;;;;;2.60;2.40;;;;;;;0.49;100.00;97211.69;15268445;19;20026;-49
2023/01/19 13:06:04;;;;;;;2.00;1.77;;;;;;;0.47;100.00;97203.03;15278224;19;20369;-54
2023/01/19 13:11:29;;;;;;;2.20;2.00;;;;;;;0.51;100.00;97217.72;15268077;19;20014;-53
2023/01/19 13:17:05;;;;;;;2.90;2.10;;;;;;;0.56;100.00;97228.75;15260877;19;20006;-51
2023/01/19 13:23:13;;;;;;;4.32;2.13;;;;;;;0.45;100.00;97227.00;15269941;19;20014;-50
2023/01/19 13:28:47;;;;;;;2.80;2.10;;;;;;;0.49;100.00;97218.78;15256573;19;20025;-52
2023/01/19 13:34:16;;;;;;;2.97;2.47;;;;;;;0.46;100.00;97233.13;15269826;19;20014;-53
2023/01/19 13:39:49;;;;;;;3.25;2.25;;;;;;;0.45;100.00;97236.75;15268991;19;20010;-50
2023/01/19 13:45:25;;;;;;;4.28;2.60;;;;;;;0.40;100.00;97239.78;15263867;19;20029;-49
2023/01/19 13:50:50;;;;;;;3.03;2.20;;;;;;;0.36;100.00;97253.41;15255672;19;20105;-52
2023/01/19 13:56:25;;;;;;;2.25;2.00;;;;;;;0.26;100.00;97246.22;15264420;19;20062;-50
2023/01/19 14:01:53;;;;;;;2.90;2.53;;;;;;;0.26;100.00;97254.16;15255966;19;20343;-54
2023/01/19 14:07:25;;;;;;;2.83;2.30;;;;;;;0.18;100.00;97250.47;15273425;19;20006;-49
2023/01/19 14:12:52;;;;;;;3.28;2.50;;;;;;;0.19;100.00;97249.50;15279390;19;20021;-52
2023/01/19 14:18:27;;;;;;;2.60;2.40;;;;;;;0.14;100.00;97249.88;15271135;19;20601;-52
2023/01/19 14:23:55;;;;;;;2.92;2.55;;;;;;;0.14;100.00;97256.00;15278851;19;20011;-50
2023/01/19 14:29:27;;;;;;;3.10;2.80;;;;;;;0.07;100.00;97254.81;15272872;19;20010;-52
2023/01/19 14:34:53;;;;;;;3.50;3.20;;;;;;;0.05;100.00;97255.91;15269528;19;20042;-50
2023/01/19 14:40:23;;;;;;;3.80;3.20;;;;;;;0.01;100.00;97262.41;15271241;19;20010;-50
2023/01/19 14:45:55;;;;;;;3.85;3.53;;;;;;;-0.09;100.00;97257.00;15278435;19;20014;-50
2023/01/19 14:51:23;;;;;;;4.13;3.60;;;;;;;-0.18;100.00;97256.78;15264798;19;20018;-52
2023/01/19 14:56:48;;;;;;;4.97;4.10;;;;;;;-0.25;100.00;97266.19;15276577;19;20086;-50
2023/01/19 15:02:22;;;;;;;5.50;4.35;;;;;;;-0.29;100.00;97266.56;15272965;19;20015;-50
2023/01/19 15:07:48;;;;;;;4.78;4.20;;;;;;;-0.37;100.00;97275.94;15275369;19;20082;-50
2023/01/19 15:13:13;;;;;;;4.70;3.70;;;;;;;-0.40;100.00;97273.53;15277938;19;20017;-50
2023/01/19 15:18:42;;;;;;;4.53;3.92;;;;;;;-0.42;100.00;97270.19;15272162;19;20739;-49
2023/01/19 15:24:07;;;;;;;4.72;4.10;;;;;;;-0.47;100.00;97269.69;15268593;19;20039;-52
2023/01/19 15:29:36;;;;;;;4.25;3.80;;;;;;;-0.47;100.00;97280.28;15272242;19;20018;-50
2023/01/19 15:35:05;;;;;;;4.40;3.60;;;;;;;-0.52;100.00;97295.66;15275458;19;20043;-52
2023/01/19 15:40:31;;;;;;;3.90;3.45;;;;;;;-0.55;100.00;97315.25;15267393;19;20007;-54
2023/01/19 15:45:59;;;;;;;4.28;3.53;;;;;;;-0.55;100.00;97322.38;15264667;19;20035;-50
2023/01/19 15:51:28;;;;;;;4.22;3.80;;;;;;;-0.54;100.00;97316.94;15265461;19;20094;-50
2023/01/19 15:56:54;;;;;;;4.90;4.03;;;;;;;-0.54;100.00;97324.88;15260461;19;20014;-47
2023/01/19 16:02:27;;;;;;;4.07;3.58;;;;;;;-0.54;100.00;97334.63;15261640;19;20025;-54
2023/01/19 16:07:56;;;;;;;4.38;3.90;;;;;;;-0.54;100.00;97330.16;15250076;19;20579;-56
2023/01/19 16:13:21;;;;;;;5.45;4.55;;;;;;;-0.53;100.00;97347.72;15264887;19;20022;-52
2023/01/19 16:18:46;;;;;;;5.30;4.80;;;;;;;-0.51;100.00;97348.47;15266853;19;20011;-53
2023/01/19 16:24:13;;;;;;;5.10;4.45;;;;;;;-0.51;100.00;97355.53;15268362;19;20040;-53
2023/01/19 16:29:38;;;;;;;4.85;4.20;;;;;;;-0.51;100.00;97355.53;15260622;19;20016;-55
2023/01/19 16:35:02;;;;;;;7.40;5.32;;;;;;;-0.51;100.00;97358.19;15263727;19;20451;-56
2023/01/19 16:40:30;;;;;;;5.53;4.65;;;;;;;-0.53;100.00;97357.47;15262756;19;20014;-51
2023/01/19 16:46:06;;;;;;;9.05;8.25;;;;;;;-0.54;100.00;97361.91;15260317;19;20070;-50
2023/01/19 16:51:31;;;;;;;5.00;4.13;;;;;;;-0.54;100.00;97361.09;15263316;19;20651;-52
2023/01/19 16:57:01;;;;;;;4.32;3.95;;;;;;;-0.56;100.00;97376.22;15259248;19;20053;-54
2023/01/19 17:02:25;;;;;;;4.57;4.18;;;;;;;-0.56;100.00;97381.53;15257226;19;20017;-58
2023/01/19 17:07:50;;;;;;;4.53;4.00;;;;;;;-0.59;100.00;97379.97;15264379;19;20020;-53
2023/01/19 17:13:17;;;;;;;5.88;4.18;;;;;;;-0.58;100.00;97386.09;15258953;19;20020;-54
2023/01/19 17:18:44;;;;;;;4.38;3.97;;;;;;;-0.58;100.00;97391.38;15263251;19;20019;-54
2023/01/19 17:24:09;;;;;;;5.10;4.07;;;;;;;-0.59;100.00;97390.53;15261039;19;20014;-55
2023/01/19 17:29:37;;;;;;;4.25;3.92;;;;;;;-0.56;100.00;97398.22;15267490;19;20438;-55
2023/01/19 17:35:02;;;;;;;4.00;3.70;;;;;;;-0.54;100.00;97404.25;15257312;19;20042;-55
2023/01/19 17:40:28;;;;;;;4.00;3.70;;;;;;;-0.52;100.00;97406.75;15265403;19;20006;-56
2023/01/19 17:45:55;;;;;;;4.70;3.70;;;;;;;-0.50;100.00;97416.28;15257859;19;20456;-56
2023/01/19 17:51:21;;;;;;;4.47;4.07;;;;;;;-0.50;100.00;97432.16;15264048;19;20020;-54
2023/01/19 17:56:47;;;;;;;4.82;4.43;;;;;;;-0.56;100.00;97442.38;15256994;19;20025;-56
2023/01/19 18:02:14;;;;;;;6.28;5.70;;;;;;;-0.69;100.00;97453.88;15268616;19;20011;-53
2023/01/19 18:07:45;;;;;;;7.15;5.72;;;;;;;-0.75;100.00;97464.88;15259771;19;20010;-55
2023/01/19 18:13:10;;;;;;;7.30;6.60;;;;;;;-0.80;100.00;97483.75;15264455;19;20010;-51
2023/01/19 18:18:39;;;;;;;8.55;7.75;;;;;;;-0.83;100.00;97485.78;15257117;19;20014;-57
2023/01/19 18:24:06;;;;;;;8.35;7.65;;;;;;;-0.84;100.00;97486.72;15263753;19;20018;-55
2023/01/19 18:29:31;;;;;;;8.80;8.00;;;;;;;-0.86;100.00;97497.44;15266536;19;20018;-55
2023/01/19 18:34:58;;;;;;;7.47;6.88;;;;;;;-0.82;100.00;97495.41;15254375;19;20407;-52
2023/01/19 18:40:24;;;;;;;8.90;8.00;;;;;;;-0.81;100.00;97508.50;15250180;19;20333;-55
2023/01/19 18:45:48;;;;;;;8.55;7.75;;;;;;;-0.81;100.00;97519.06;15256173;19;20426;-55
2023/01/19 18:51:18;;;;;;;9.00;8.10;;;;;;;-0.78;100.00;97526.78;15260574;19;20020;-56
2023/01/19 18:56:43;;;;;;;9.93;9.02;;;;;;;-0.76;100.00;97524.03;15273099;19;20028;-55
2023/01/19 19:02:07;;;;;;;11.20;10.20;;;;;;;-0.75;100.00;97536.28;15273364;19;20018;-55
2023/01/19 19:07:42;;;;;;;10.93;9.93;;;;;;;-0.76;100.00;97537.25;15266517;19;20035;-54
2023/01/19 19:13:06;;;;;;;12.13;10.52;;;;;;;-0.79;100.00;97534.84;15271728;19;20035;-54
2023/01/19 19:18:31;;;;;;;9.30;8.40;;;;;;;-0.81;100.00;97531.47;15273915;19;20471;-51
2023/01/19 19:24:00;;;;;;;7.53;6.85;;;;;;;-0.80;100.00;97543.72;15268086;19;20018;-55
2023/01/19 19:29:24;;;;;;;7.78;7.07;;;;;;;-0.81;100.00;97542.88;15274850;19;20295;-52
2023/01/19 19:34:51;;;;;;;7.70;7.00;;;;;;;-0.81;100.00;97549.97;15269919;19;20010;-54
2023/01/19 19:40:20;;;;;;;8.02;7.38;;;;;;;-0.82;100.00;97557.06;15261336;19;20022;-54
2023/01/19 19:45:45;;;;;;;7.50;6.90;;;;;;;-0.81;100.00;97564.03;15269870;19;20018;-56
2023/01/19 19:51:14;;;;;;;7.93;7.22;;;;;;;-0.78;100.00;97563.81;15266490;19;20275;-56
2023/01/19 19:56:41;;;;;;;11.98;10.88;;;;;;;-0.80;100.00;97571.00;15261127;19;20082;-56
2023/01/19 20:02:06;;;;;;;14.25;12.93;;;;;;;-0.81;100.00;97584.34;15264558;19;20011;-53
2023/01/19 20:07:38;;;;;;;15.93;14.43;;;;;;;-0.82;100.00;97585.31;15266927;19;20502;-53
2023/01/19 20:13:06;;;;;;;15.52;14.13;;;;;;;-0.83;100.00;97588.91;15261697;19;20049;-53
2023/01/19 20:18:31;;;;;;;13.73;12.50;;;;;;;-0.82;100.00;97598.53;15270010;19;20035;-51
2023/01/19 20:24:01;;;;;;;13.80;12.57;;;;;;;-0.81;100.00;97608.16;15269173;19;21214;-53
2023/01/19 20:29:28;;;;;;;14.55;13.15;;;;;;;-0.81;100.00;97614.28;15264695;19;20037;-56
2023/01/19 20:34:54;;;;;;;13.88;12.48;;;;;;;-0.82;100.00;97612.59;15263078;19;20022;-52
2023/01/19 20:40:18;;;;;;;13.57;12.27;;;;;;;-0.82;100.00;97617.03;15265822;19;20017;-55
2023/01/19 20:45:46;;;;;;;13.63;12.23;;;;;;;-0.83;100.00;97615.34;15257300;19;20086;-57
2023/01/19 20:51:13;;;;;;;13.60;12.20;;;;;;;-0.83;100.00;97613.56;15268516;19;20022;-55
2023/01/19 20:56:39;;;;;;;13.82;12.00;;;;;;;-0.84;100.00;97618.94;15263114;19;20021;-55
2023/01/19 21:02:13;;;;;;;12.70;11.50;;;;;;;-0.83;100.00;97620.63;15258042;19;20083;-56
2023/01/19 21:07:44;;;;;;;12.07;10.77;;;;;;;-0.83;100.00;97628.56;15264565;19;20057;-56
2023/01/19 21:13:09;;;;;;;12.45;11.18;;;;;;;-0.82;100.00;97632.91;15266696;19;20018;-54
2023/01/19 21:18:36;;;;;;;12.30;11.10;;;;;;;-0.81;100.00;97645.19;15261588;19;20002;-51
2023/01/19 21:24:05;;;;;;;12.20;11.02;;;;;;;-0.81;100.00;97642.53;15266726;19;20018;-54
2023/01/19 21:29:30;;;;;;;12.80;11.50;;;;;;;-0.81;100.00;97647.81;15267746;19;20018;-53
2023/01/19 21:34:57;;;;;;;13.75;12.25;;;;;;;-0.83;100.00;97652.38;15260737;19;20020;-51
2023/01/19 21:40:23;;;;;;;12.60;11.02;;;;;;;-0.84;100.00;97654.19;15263892;19;20018;-54
2023/01/19 21:45:49;;;;;;;11.98;10.77;;;;;;;-0.86;100.00;97656.09;15262915;19;20099;-56
2023/01/19 21:51:16;;;;;;;10.38;9.35;;;;;;;-0.88;100.00;97660.63;15258073;19;20037;-56
2023/01/19 21:56:42;;;;;;;10.05;9.07;;;;;;;-0.89;100.00;97660.75;15261081;19;20025;-54
2023/01/19 22:02:06;;;;;;;10.73;9.40;;;;;;;-0.90;100.00;97656.41;15261910;19;20018;-55
2023/01/19 22:07:33;;;;;;;13.48;12.07;;;;;;;-0.93;100.00;97660.97;15243058;19;20015;-49
2023/01/19 22:12:58;;;;;;;12.50;11.30;;;;;;;-0.96;100.00;97661.16;15266306;19;20007;-48
2023/01/19 22:18:23;;;;;;;10.70;9.70;;;;;;;-0.95;100.00;97670.78;15265231;19;20016;-51
2023/01/19 22:23:51;;;;;;;10.20;9.20;;;;;;;-0.96;100.00;97671.75;15259871;19;20025;-51
2023/01/19 22:29:16;;;;;;;9.15;8.25;;;;;;;-0.96;100.00;97665.63;15279516;19;20027;-49
2023/01/19 22:34:40;;;;;;;9.50;7.47;;;;;;;-0.98;100.00;97673.66;15275447;19;20485;-50
2023/01/19 22:40:08;;;;;;;9.30;8.40;;;;;;;-0.99;100.00;97679.06;15276711;19;20011;-52
2023/01/19 22:45:33;;;;;;;10.45;8.15;;;;;;;-1.02;100.00;97673.97;15278343;19;20010;-50
2023/01/19 22:50:59;;;;;;;8.57;7.72;;;;;;;-1.06;100.00;97681.28;15282203;19;20388;-51
2023/01/19 22:56:29;;;;;;;8.25;7.45;;;;;;;-1.15;100.00;97668.69;15270113;19;20027;-53
2023/01/19 23:01:54;;;;;;;8.25;7.45;;;;;;;-1.18;100.00;97675.06;15276358;19;20851;-51
2023/01/19 23:07:26;;;;;;;9.15;8.35;;;;;;;-1.25;100.00;97669.34;15270224;19;20024;-49
2023/01/19 23:12:53;;;;;;;8.73;7.93;;;;;;;-1.18;100.00;97674.19;15281173;19;20062;-51
2023/01/19 23:18:19;;;;;;;7.20;6.47;;;;;;;-1.16;100.00;97683.69;15278858;19;20006;-50
2023/01/19 23:23:44;;;;;;;7.45;5.75;;;;;;;-1.17;100.00;97689.09;15278088;19;20021;-53
2023/01/19 23:29:16;;;;;;;6.85;6.25;;;;;;;-1.18;100.00;97695.34;15276773;19;20074;-51
2023/01/19 23:34:41;;;;;;;8.10;7.03;;;;;;;-1.24;100.00;97696.59;15278295;19;20021;-50
2023/01/19 23:40:08;;;;;;;8.60;7.60;;;;;;;-1.26;100.00;97695.84;15275274;19;20090;-49
2023/01/19 23:45:36;;;;;;;8.85;7.95;;;;;;;-1.27;100.00;97708.25;15275706;19;20015;-52
2023/01/19 23:51:01;;;;;;;8.52;7.63;;;;;;;-1.29;100.00;97704.84;15271670;19;20068;-48
2023/01/19 23:56:28;;;;;;;7.47;6.88;;;;;;;-1.28;100.00;97709.19;15271652;19;20025;-53
